Time;durP1;ratioP1;P1;durP2;ratioP2;P2;SDS_P1;SDS_P2;PMS_P1;PMS_P2;Temp;Humidity;BMP_temperature;BMP_pressure;BME280_temperature;BME280_humidity;BME280_pressure;Samples;Min_cycle;Max_cycle;Signal;HPM_P1;HPM_P2
2023/12/12 00:00:38;;;;;;;0.20;0.20;;;4.70;99.90;;;;;;5035783;28;20182;-80
2023/12/12 00:03:03;;;;;;;0.20;0.20;;;4.70;99.90;;;;;;5047804;28;20187;-80
2023/12/12 00:05:29;;;;;;;0.20;0.20;;;4.70;99.90;;;;;;5029982;28;20295;-80
2023/12/12 00:07:55;;;;;;;0.20;0.20;;;4.80;99.90;;;;;;5032365;28;20790;-80
2023/12/12 00:10:21;;;;;;;0.30;0.30;;;4.80;99.90;;;;;;5028913;28;20183;-80
2023/12/12 00:12:46;;;;;;;0.20;0.20;;;4.80;99.90;;;;;;5042140;28;20831;-80
2023/12/12 00:15:12;;;;;;;0.30;0.30;;;4.80;99.90;;;;;;5048650;28;20186;-80
2023/12/12 00:17:38;;;;;;;0.30;0.30;;;4.80;99.90;;;;;;5043844;28;20655;-80
2023/12/12 00:20:07;;;;;;;0.17;0.17;;;4.80;99.90;;;;;;5016785;28;20231;-80
2023/12/12 00:22:33;;;;;;;0.20;0.20;;;4.80;99.90;;;;;;5031102;28;20422;-80
2023/12/12 00:24:58;;;;;;;0.27;0.27;;;4.80;99.90;;;;;;5029526;28;20414;-80
2023/12/12 00:27:24;;;;;;;0.30;0.30;;;4.80;99.90;;;;;;5049499;28;20186;-80
2023/12/12 00:29:49;;;;;;;0.30;0.30;;;4.80;99.90;;;;;;5033855;28;20180;-80
2023/12/12 00:32:15;;;;;;;0.20;0.20;;;4.80;99.90;;;;;;5039226;28;20214;-79
2023/12/12 00:34:40;;;;;;;0.30;0.30;;;4.70;99.90;;;;;;5033394;28;20183;-80
2023/12/12 00:37:06;;;;;;;0.20;0.20;;;4.80;99.90;;;;;;5031275;28;20187;-80
2023/12/12 00:39:39;;;;;;;0.20;0.20;;;4.70;99.90;;;;;;5030926;28;20199;-80
2023/12/12 00:42:05;;;;;;;0.20;0.20;;;4.70;99.90;;;;;;5012393;28;20185;-80
2023/12/12 00:44:31;;;;;;;0.20;0.20;;;4.80;99.90;;;;;;5025997;28;20426;-80
2023/12/12 00:46:56;;;;;;;0.30;0.30;;;4.70;99.90;;;;;;5033677;28;20798;-81
2023/12/12 00:49:22;;;;;;;0.20;0.20;;;4.70;99.90;;;;;;5039278;28;20191;-81
2023/12/12 00:51:47;;;;;;;0.20;0.20;;;4.70;99.90;;;;;;5040246;28;20277;-80
2023/12/12 00:54:13;;;;;;;0.20;0.20;;;4.70;99.90;;;;;;5011507;28;20203;-80
2023/12/12 00:56:38;;;;;;;0.20;0.20;;;4.70;99.90;;;;;;5016842;28;20185;-80
2023/12/12 00:59:04;;;;;;;0.30;0.30;;;4.70;99.90;;;;;;5022154;28;20184;-80
2023/12/12 01:01:29;;;;;;;0.27;0.27;;;4.70;99.90;;;;;;5041025;28;20186;-80
2023/12/12 01:03:55;;;;;;;0.30;0.30;;;4.70;99.90;;;;;;5021224;28;20226;-80
2023/12/12 01:06:24;;;;;;;0.30;0.30;;;4.70;99.90;;;;;;5000885;28;20187;-80
2023/12/12 01:08:50;;;;;;;0.20;0.20;;;4.70;99.90;;;;;;5029812;28;20187;-80
2023/12/12 01:11:17;;;;;;;0.20;0.20;;;4.70;99.90;;;;;;5029399;28;20603;-80
2023/12/12 01:13:43;;;;;;;0.20;0.20;;;4.70;99.90;;;;;;5028356;28;20441;-80
2023/12/12 01:16:08;;;;;;;0.20;0.20;;;4.60;99.90;;;;;;5029592;28;20441;-80
2023/12/12 01:18:34;;;;;;;0.30;0.30;;;4.70;99.90;;;;;;5036585;28;20218;-80
2023/12/12 01:21:00;;;;;;;0.30;0.30;;;4.70;99.90;;;;;;5041038;28;20174;-80
2023/12/12 01:23:26;;;;;;;0.30;0.30;;;4.70;99.90;;;;;;5033930;28;20439;-80
2023/12/12 01:25:51;;;;;;;0.20;0.20;;;4.60;99.90;;;;;;5031598;28;20906;-80
2023/12/12 01:28:17;;;;;;;0.30;0.30;;;4.70;99.90;;;;;;5010937;28;20188;-80
2023/12/12 01:30:43;;;;;;;0.30;0.30;;;4.70;99.90;;;;;;5034250;28;20190;-80
2023/12/12 01:33:08;;;;;;;0.30;0.30;;;4.60;99.90;;;;;;5029209;28;20245;-80
2023/12/12 01:35:34;;;;;;;0.20;0.20;;;4.60;99.90;;;;;;5020291;28;20657;-80
2023/12/12 01:37:59;;;;;;;0.20;0.20;;;4.60;99.90;;;;;;5031517;28;20210;-80
2023/12/12 01:40:25;;;;;;;0.27;0.27;;;4.60;99.90;;;;;;5037884;28;20231;-80
2023/12/12 01:42:50;;;;;;;0.20;0.20;;;4.60;99.90;;;;;;5043633;28;20191;-80
2023/12/12 01:45:16;;;;;;;0.20;0.20;;;4.70;99.90;;;;;;5033032;28;20547;-80
2023/12/12 01:47:41;;;;;;;0.20;0.20;;;4.60;99.90;;;;;;5038835;28;20286;-80
2023/12/12 01:50:07;;;;;;;0.27;0.27;;;4.60;99.90;;;;;;5040941;28;20669;-80
2023/12/12 01:52:34;;;;;;;0.30;0.30;;;4.60;99.90;;;;;;5039001;28;20230;-80
2023/12/12 01:55:00;;;;;;;0.30;0.30;;;4.60;99.90;;;;;;5009974;28;20419;-80
2023/12/12 01:57:26;;;;;;;0.20;0.20;;;4.50;99.90;;;;;;5028451;28;21249;-80
2023/12/12 01:59:52;;;;;;;0.30;0.30;;;4.60;99.90;;;;;;5038869;28;20601;-80
2023/12/12 02:02:19;;;;;;;0.30;0.30;;;4.50;99.90;;;;;;5047744;28;20189;-80
2023/12/12 02:04:47;;;;;;;0.27;0.27;;;4.50;99.90;;;;;;5035685;28;20426;-80
2023/12/12 02:07:13;;;;;;;0.30;0.30;;;4.40;99.90;;;;;;5016839;28;20861;-80
2023/12/12 02:09:40;;;;;;;0.20;0.20;;;4.50;99.90;;;;;;5011868;28;20434;-80
2023/12/12 02:12:05;;;;;;;0.20;0.20;;;4.50;99.90;;;;;;5028520;28;20635;-81
2023/12/12 02:14:33;;;;;;;0.30;0.30;;;4.50;99.90;;;;;;5030582;28;20426;-80
2023/12/12 02:16:59;;;;;;;0.20;0.20;;;4.50;99.90;;;;;;5035319;28;20179;-80
2023/12/12 02:19:24;;;;;;;0.30;0.30;;;4.50;99.90;;;;;;5031985;28;20461;-80
2023/12/12 02:21:49;;;;;;;0.20;0.20;;;4.50;99.90;;;;;;5041783;28;20275;-80
2023/12/12 02:24:15;;;;;;;0.20;0.20;;;4.50;99.90;;;;;;5034246;28;20187;-80
2023/12/12 02:26:41;;;;;;;0.20;0.20;;;4.50;99.90;;;;;;5029164;28;20185;-80
2023/12/12 02:29:06;;;;;;;0.30;0.30;;;4.50;99.90;;;;;;5028626;28;20203;-80
2023/12/12 02:31:32;;;;;;;0.30;0.30;;;4.50;99.90;;;;;;5040843;28;20234;-80
2023/12/12 02:33:58;;;;;;;0.27;0.27;;;4.40;99.90;;;;;;5034503;28;20290;-80
2023/12/12 02:36:23;;;;;;;0.23;0.23;;;4.40;99.90;;;;;;5032984;28;20513;-82
2023/12/12 02:38:49;;;;;;;0.20;0.20;;;4.40;99.90;;;;;;5032017;28;20206;-80
2023/12/12 02:41:14;;;;;;;0.30;0.30;;;4.40;99.90;;;;;;5012819;28;20805;-80
2023/12/12 02:43:40;;;;;;;0.20;0.20;;;4.40;99.90;;;;;;5033099;28;20179;-79
2023/12/12 02:46:06;;;;;;;0.27;0.27;;;4.40;99.90;;;;;;5032611;28;20199;-80
2023/12/12 02:48:32;;;;;;;0.30;0.30;;;4.40;99.90;;;;;;5048001;28;20187;-80
2023/12/12 02:50:57;;;;;;;0.30;0.30;;;4.40;99.90;;;;;;5037933;28;20511;-80
2023/12/12 02:53:23;;;;;;;0.20;0.20;;;4.40;99.90;;;;;;5046935;28;20238;-79
2023/12/12 02:55:48;;;;;;;0.20;0.20;;;4.40;99.90;;;;;;5052381;28;20218;-80
2023/12/12 02:58:14;;;;;;;0.30;0.30;;;4.40;99.90;;;;;;5017826;28;20218;-80
2023/12/12 03:00:39;;;;;;;0.30;0.30;;;4.30;99.90;;;;;;5036372;28;20277;-80
2023/12/12 03:03:05;;;;;;;0.30;0.30;;;4.40;99.90;;;;;;5036227;28;20270;-80
2023/12/12 03:05:30;;;;;;;0.30;0.30;;;4.40;99.90;;;;;;5037279;28;20695;-80
2023/12/12 03:07:56;;;;;;;0.30;0.30;;;4.30;99.90;;;;;;5033101;28;20270;-80
2023/12/12 03:10:21;;;;;;;0.30;0.30;;;4.30;99.90;;;;;;5031961;28;20505;-81
2023/12/12 03:12:47;;;;;;;0.27;0.27;;;4.30;99.90;;;;;;5043899;28;20296;-80
2023/12/12 03:15:12;;;;;;;0.30;0.30;;;4.30;99.90;;;;;;5012940;28;20214;-80
2023/12/12 03:17:38;;;;;;;0.30;0.30;;;4.30;99.90;;;;;;5030766;28;20196;-80
2023/12/12 03:20:04;;;;;;;0.30;0.30;;;4.30;99.90;;;;;;5031272;28;20310;-80
2023/12/12 03:22:30;;;;;;;0.30;0.30;;;4.20;99.90;;;;;;5050616;28;20639;-80
2023/12/12 03:24:55;;;;;;;0.30;0.30;;;4.20;99.90;;;;;;5032918;28;20528;-80
2023/12/12 03:27:21;;;;;;;0.30;0.30;;;4.20;99.90;;;;;;5045887;28;20186;-80
2023/12/12 03:29:46;;;;;;;0.27;0.27;;;4.20;99.90;;;;;;5049571;28;20194;-80
2023/12/12 03:32:12;;;;;;;0.20;0.20;;;4.10;99.90;;;;;;5046538;28;20218;-80
2023/12/12 03:34:37;;;;;;;0.20;0.20;;;4.20;99.90;;;;;;5042667;28;20261;-80
2023/12/12 03:37:03;;;;;;;0.30;0.30;;;4.20;99.90;;;;;;5038692;28;20186;-80
2023/12/12 03:39:28;;;;;;;0.20;0.20;;;4.20;99.90;;;;;;5028505;28;20196;-80
2023/12/12 03:41:54;;;;;;;0.20;0.20;;;4.30;99.90;;;;;;5029241;28;20183;-80
2023/12/12 03:44:19;;;;;;;0.20;0.20;;;4.30;99.90;;;;;;5051435;28;20549;-80
2023/12/12 03:46:45;;;;;;;0.20;0.20;;;4.30;99.90;;;;;;5026630;28;20247;-80
2023/12/12 03:49:11;;;;;;;0.20;0.20;;;4.30;99.90;;;;;;5028520;28;20199;-80
2023/12/12 03:51:36;;;;;;;0.20;0.20;;;4.20;99.90;;;;;;5042920;28;20690;-80
2023/12/12 03:54:02;;;;;;;0.30;0.30;;;4.30;99.90;;;;;;5038587;28;20202;-80
2023/12/12 03:56:27;;;;;;;0.30;0.30;;;4.30;99.90;;;;;;5034774;28;20603;-80
2023/12/12 03:58:53;;;;;;;0.30;0.30;;;4.30;99.90;;;;;;5012239;28;20179;-80
2023/12/12 04:01:19;;;;;;;0.20;0.20;;;4.30;99.90;;;;;;5030181;28;20262;-80
2023/12/12 04:03:45;;;;;;;0.30;0.30;;;4.30;99.90;;;;;;5031367;28;20205;-80
2023/12/12 04:06:10;;;;;;;0.30;0.30;;;4.20;99.90;;;;;;5041423;28;20430;-80
2023/12/12 04:08:36;;;;;;;0.20;0.20;;;4.20;99.90;;;;;;5017727;28;20180;-80
2023/12/12 04:11:01;;;;;;;0.30;0.30;;;4.20;99.90;;;;;;5028533;28;21735;-80
2023/12/12 04:13:27;;;;;;;0.10;0.10;;;4.30;99.90;;;;;;5034558;28;21065;-80
2023/12/12 04:15:53;;;;;;;0.20;0.20;;;4.30;99.90;;;;;;5030691;28;20560;-82
2023/12/12 04:18:18;;;;;;;0.30;0.30;;;4.30;99.90;;;;;;5012664;28;20191;-82
2023/12/12 04:20:44;;;;;;;0.30;0.30;;;4.30;99.90;;;;;;5029257;28;20187;-80
2023/12/12 04:23:09;;;;;;;0.30;0.30;;;4.20;99.90;;;;;;5019800;28;20182;-80
2023/12/12 04:25:35;;;;;;;0.30;0.30;;;4.20;99.90;;;;;;5042742;28;20184;-80
2023/12/12 04:28:00;;;;;;;0.30;0.30;;;4.20;99.90;;;;;;5044097;28;20722;-80
2023/12/12 04:30:26;;;;;;;0.30;0.30;;;4.20;99.90;;;;;;5035059;28;20214;-81
2023/12/12 04:32:52;;;;;;;0.20;0.20;;;4.20;99.90;;;;;;5027878;28;20219;-80
2023/12/12 04:35:19;;;;;;;0.20;0.20;;;4.20;99.90;;;;;;5029836;28;20183;-80
2023/12/12 04:37:45;;;;;;;0.20;0.20;;;4.20;99.90;;;;;;5037701;28;20410;-80
2023/12/12 04:40:11;;;;;;;0.20;0.20;;;4.20;99.90;;;;;;5028756;28;20421;-80
2023/12/12 04:42:36;;;;;;;0.20;0.20;;;4.20;99.90;;;;;;5041083;28;20937;-82
2023/12/12 04:45:02;;;;;;;0.30;0.30;;;4.20;99.90;;;;;;5048000;28;20269;-83
2023/12/12 04:47:28;;;;;;;0.30;0.30;;;4.30;99.90;;;;;;5031046;28;20579;-80
2023/12/12 04:49:55;;;;;;;0.30;0.30;;;4.30;99.90;;;;;;5038162;28;20183;-80
2023/12/12 04:52:21;;;;;;;0.20;0.20;;;4.30;99.90;;;;;;5029734;28;20250;-80
2023/12/12 04:54:46;;;;;;;0.30;0.30;;;4.30;99.90;;;;;;5011392;28;20434;-80
2023/12/12 04:57:12;;;;;;;0.30;0.30;;;4.30;99.90;;;;;;5040662;28;20194;-80
2023/12/12 04:59:37;;;;;;;0.30;0.30;;;4.30;99.90;;;;;;5030332;28;20659;-80
2023/12/12 05:02:04;;;;;;;0.20;0.20;;;4.20;99.90;;;;;;5028667;28;20188;-80
2023/12/12 05:04:29;;;;;;;0.27;0.27;;;4.30;99.90;;;;;;5029068;28;20187;-80
2023/12/12 05:06:55;;;;;;;0.30;0.30;;;4.30;99.90;;;;;;5027312;28;20492;-80
2023/12/12 05:09:20;;;;;;;0.30;0.30;;;4.30;99.90;;;;;;5012209;28;20254;-80
2023/12/12 05:11:47;;;;;;;0.30;0.30;;;4.30;99.90;;;;;;5011556;28;20211;-81
2023/12/12 05:14:14;;;;;;;0.27;0.27;;;4.30;99.90;;;;;;5010898;28;20186;-80
2023/12/12 05:16:39;;;;;;;0.30;0.30;;;4.30;99.90;;;;;;5028801;28;20422;-80
2023/12/12 05:19:05;;;;;;;0.30;0.30;;;4.30;99.90;;;;;;5012069;28;20489;-80
2023/12/12 05:21:30;;;;;;;0.30;0.30;;;4.30;99.90;;;;;;4998492;28;20183;-80
2023/12/12 05:23:56;;;;;;;0.30;0.30;;;4.30;99.90;;;;;;4993141;28;20181;-80
2023/12/12 05:26:22;;;;;;;0.20;0.20;;;4.30;99.90;;;;;;5020077;28;20192;-80
2023/12/12 05:28:47;;;;;;;0.30;0.30;;;4.30;99.90;;;;;;5021304;28;20217;-80
2023/12/12 05:31:13;;;;;;;0.30;0.30;;;4.30;99.90;;;;;;5026717;28;20197;-80
2023/12/12 05:33:39;;;;;;;0.30;0.30;;;4.30;99.90;;;;;;5002501;28;20221;-80
2023/12/12 05:36:05;;;;;;;0.30;0.30;;;4.30;99.90;;;;;;4983856;28;20259;-80
2023/12/12 05:38:30;;;;;;;0.30;0.30;;;4.30;99.90;;;;;;4997681;28;20460;-80
2023/12/12 05:40:56;;;;;;;0.23;0.23;;;4.30;99.90;;;;;;5000490;28;20467;-80
2023/12/12 05:43:22;;;;;;;0.30;0.30;;;4.30;99.90;;;;;;4993420;28;20195;-80
2023/12/12 05:45:47;;;;;;;0.33;0.33;;;4.30;99.90;;;;;;5014710;28;20970;-80
2023/12/12 05:48:13;;;;;;;0.20;0.20;;;4.30;99.90;;;;;;5028099;28;20693;-80
2023/12/12 05:50:39;;;;;;;0.30;0.30;;;4.30;99.90;;;;;;5025121;28;20187;-80
2023/12/12 05:53:08;;;;;;;0.30;0.30;;;4.30;99.90;;;;;;5022435;28;20258;-80
2023/12/12 05:55:33;;;;;;;0.30;0.30;;;4.30;99.90;;;;;;5005378;28;20323;-83
2023/12/12 05:57:59;;;;;;;0.30;0.30;;;4.30;99.90;;;;;;5019087;28;20537;-80
2023/12/12 06:00:27;;;;;;;;;;;4.30;99.90;;;;;;4992552;28;20679;-80
2023/12/12 06:02:53;;;;;;;;;;;4.30;99.90;;;;;;5022470;28;19913;-80
2023/12/12 06:05:19;;;;;;;;;;;4.30;99.90;;;;;;5018475;28;19917;-81
2023/12/12 06:07:44;;;;;;;0.20;0.20;;;4.30;99.90;;;;;;5011881;28;19910;-80
2023/12/12 06:10:10;;;;;;;0.30;0.30;;;4.30;99.90;;;;;;5000784;28;20640;-80
2023/12/12 06:12:36;;;;;;;0.30;0.30;;;4.30;99.90;;;;;;5021753;28;20676;-80
2023/12/12 06:15:02;;;;;;;0.30;0.30;;;4.30;99.90;;;;;;5025961;28;20439;-80
2023/12/12 06:17:27;;;;;;;0.30;0.30;;;4.30;99.90;;;;;;5019117;28;20210;-80
2023/12/12 06:19:53;;;;;;;0.20;0.20;;;4.30;99.90;;;;;;5023733;28;20837;-81
2023/12/12 06:22:19;;;;;;;0.30;0.30;;;4.30;99.90;;;;;;5026944;28;20805;-79
2023/12/12 06:24:45;;;;;;;0.30;0.30;;;4.30;99.90;;;;;;5003913;28;20609;-80
2023/12/12 06:27:11;;;;;;;0.30;0.30;;;4.30;99.90;;;;;;5027464;28;20192;-80
2023/12/12 06:29:37;;;;;;;0.30;0.30;;;4.30;99.90;;;;;;5002926;28;20422;-79
2023/12/12 06:32:03;;;;;;;;;;;4.30;99.90;;;;;;5009276;28;20319;-81
2023/12/12 06:34:28;;;;;;;0.30;0.30;;;4.30;99.90;;;;;;5021042;28;19921;-81
2023/12/12 06:36:54;;;;;;;0.30;0.30;;;4.30;99.90;;;;;;5023787;28;20188;-80
2023/12/12 06:39:20;;;;;;;0.30;0.30;;;4.20;99.90;;;;;;5028046;28;20187;-81
2023/12/12 06:41:45;;;;;;;0.27;0.27;;;4.30;99.90;;;;;;5014866;28;20430;-81
2023/12/12 06:44:11;;;;;;;0.30;0.30;;;4.30;99.90;;;;;;5010404;28;20280;-80
2023/12/12 06:46:37;;;;;;;0.30;0.30;;;4.30;99.90;;;;;;5030378;28;20198;-80
2023/12/12 06:49:06;;;;;;;0.20;0.20;;;4.20;99.90;;;;;;5021627;28;20184;-80
2023/12/12 06:51:31;;;;;;;0.20;0.20;;;4.20;99.90;;;;;;5010220;28;20192;-81
2023/12/12 06:53:58;;;;;;;0.30;0.30;;;4.30;99.90;;;;;;5017485;28;20440;-80
2023/12/12 06:56:25;;;;;;;0.30;0.30;;;4.30;99.90;;;;;;5013298;28;20177;-81
2023/12/12 06:58:50;;;;;;;0.27;0.27;;;4.20;99.90;;;;;;5002301;28;20640;-80
2023/12/12 07:01:16;;;;;;;0.30;0.30;;;4.20;99.90;;;;;;5030374;28;20438;-80
2023/12/12 07:03:41;;;;;;;0.20;0.20;;;4.20;99.90;;;;;;5025160;28;20179;-80
2023/12/12 07:06:08;;;;;;;0.30;0.30;;;4.20;99.90;;;;;;5020522;28;20560;-80
2023/12/12 07:08:34;;;;;;;0.30;0.30;;;4.20;99.90;;;;;;5026915;28;20250;-81
2023/12/12 07:10:59;;;;;;;0.30;0.30;;;4.30;99.90;;;;;;5032418;28;20475;-80
2023/12/12 07:13:25;;;;;;;0.30;0.30;;;4.30;99.90;;;;;;5028994;28;20912;-80
2023/12/12 07:15:50;;;;;;;0.40;0.40;;;4.30;99.90;;;;;;5025542;28;20183;-80
2023/12/12 07:18:16;;;;;;;0.40;0.40;;;4.30;99.90;;;;;;5026168;28;20237;-80
2023/12/12 07:20:41;;;;;;;0.40;0.40;;;4.30;99.90;;;;;;5028077;28;20318;-80
2023/12/12 07:23:07;;;;;;;0.30;0.30;;;4.30;99.90;;;;;;5033911;28;20783;-81
2023/12/12 07:25:34;;;;;;;0.40;0.40;;;4.30;99.90;;;;;;5048431;28;20948;-81
2023/12/12 07:27:59;;;;;;;0.30;0.30;;;4.30;99.90;;;;;;5038761;28;20287;-80
2023/12/12 07:30:27;;;;;;;0.40;0.40;;;4.30;99.90;;;;;;5034084;28;20512;-80
2023/12/12 07:32:54;;;;;;;0.37;0.37;;;4.30;99.90;;;;;;5021692;28;20335;-81
2023/12/12 07:35:20;;;;;;;0.30;0.30;;;4.30;99.90;;;;;;5041038;28;20938;-83
2023/12/12 07:37:45;;;;;;;0.40;0.40;;;4.30;99.90;;;;;;5037562;28;20430;-84
2023/12/12 07:40:11;;;;;;;0.30;0.30;;;4.20;99.90;;;;;;5033598;28;20188;-83
2023/12/12 07:42:37;;;;;;;0.30;0.30;;;4.20;99.90;;;;;;5031334;28;20183;-84
2023/12/12 07:45:03;;;;;;;0.30;0.30;;;4.30;99.90;;;;;;5034093;28;20196;-83
2023/12/12 07:47:29;;;;;;;0.20;0.20;;;4.20;99.90;;;;;;5035692;28;20196;-83
2023/12/12 07:49:55;;;;;;;0.30;0.30;;;4.30;99.90;;;;;;5042049;28;20824;-84
2023/12/12 07:52:20;;;;;;;0.30;0.30;;;4.40;99.90;;;;;;5026445;28;20219;-84
2023/12/12 07:54:46;;;;;;;0.30;0.30;;;4.30;99.90;;;;;;5013325;28;20191;-85
2023/12/12 07:57:12;;;;;;;0.20;0.20;;;4.30;99.90;;;;;;5030729;28;20244;-84
2023/12/12 07:59:37;;;;;;;0.30;0.30;;;4.30;99.90;;;;;;5018339;28;21029;-84
2023/12/12 08:02:03;;;;;;;0.30;0.30;;;4.20;99.90;;;;;;5020547;28;20199;-84
2023/12/12 08:04:29;;;;;;;0.30;0.30;;;4.30;99.90;;;;;;5041229;28;20650;-84
2023/12/12 08:06:54;;;;;;;0.30;0.30;;;4.20;99.90;;;;;;5034799;28;20626;-84
2023/12/12 08:09:20;;;;;;;0.30;0.30;;;4.20;99.90;;;;;;5014369;28;20188;-84
2023/12/12 08:11:46;;;;;;;0.20;0.20;;;4.30;99.90;;;;;;5014084;28;20461;-85
2023/12/12 08:14:11;;;;;;;0.30;0.30;;;4.20;99.90;;;;;;5030796;28;20434;-85
2023/12/12 08:16:38;;;;;;;0.27;0.27;;;4.20;99.90;;;;;;5012602;28;20208;-85
2023/12/12 08:19:04;;;;;;;0.30;0.30;;;4.30;99.90;;;;;;5028181;28;20557;-85
2023/12/12 08:21:29;;;;;;;0.30;0.30;;;4.30;99.90;;;;;;5012589;28;20270;-84
2023/12/12 08:23:55;;;;;;;0.20;0.20;;;4.30;99.90;;;;;;5013828;28;20188;-85
2023/12/12 08:26:24;;;;;;;0.30;0.30;;;4.30;99.90;;;;;;5023133;28;20211;-85
2023/12/12 08:28:50;;;;;;;0.30;0.30;;;4.30;99.90;;;;;;5030262;28;20263;-84
2023/12/12 08:31:15;;;;;;;0.30;0.30;;;4.30;99.90;;;;;;5028388;28;20545;-85
2023/12/12 08:33:42;;;;;;;0.40;0.40;;;4.30;99.90;;;;;;5030226;28;20211;-85
2023/12/12 08:36:10;;;;;;;0.27;0.27;;;4.30;99.90;;;;;;5010904;28;20675;-85
2023/12/12 08:38:36;;;;;;;0.30;0.30;;;4.30;99.90;;;;;;5028997;28;20956;-84
2023/12/12 08:41:04;;;;;;;0.30;0.30;;;4.30;99.90;;;;;;5023249;28;20875;-85
2023/12/12 08:43:30;;;;;;;0.30;0.30;;;4.40;99.90;;;;;;5011451;28;20758;-85
2023/12/12 08:45:56;;;;;;;0.30;0.30;;;4.40;99.90;;;;;;5029504;28;20517;-85
2023/12/12 08:48:23;;;;;;;0.20;0.20;;;4.40;99.90;;;;;;5011994;28;20195;-85
2023/12/12 08:50:50;;;;;;;0.30;0.30;;;4.50;99.90;;;;;;5030252;28;20418;-84
2023/12/12 08:53:23;;;;;;;0.20;0.20;;;4.50;99.90;;;;;;5009531;28;20879;-85
2023/12/12 08:55:48;;;;;;;0.30;0.30;;;4.50;99.90;;;;;;5029105;28;20422;-85
2023/12/12 08:58:14;;;;;;;0.30;0.30;;;4.50;99.90;;;;;;5027833;28;20440;-84
2023/12/12 09:00:39;;;;;;;0.20;0.20;;;4.50;99.90;;;;;;5026222;28;20176;-87
2023/12/12 09:03:05;;;;;;;0.30;0.30;;;4.60;99.90;;;;;;5028975;28;20565;-85
2023/12/12 09:05:31;;;;;;;0.30;0.30;;;4.60;99.90;;;;;;5010149;28;20668;-85
2023/12/12 09:07:56;;;;;;;0.30;0.30;;;4.50;99.90;;;;;;5025362;28;20199;-85
2023/12/12 09:10:22;;;;;;;0.20;0.20;;;4.50;99.90;;;;;;5019733;28;20558;-84
2023/12/12 09:12:47;;;;;;;0.30;0.30;;;4.50;99.90;;;;;;5028760;28;20230;-83
2023/12/12 09:15:13;;;;;;;0.27;0.27;;;4.60;99.90;;;;;;5008691;28;20282;-84
2023/12/12 09:17:38;;;;;;;0.20;0.20;;;4.60;99.90;;;;;;5028130;28;20180;-84
2023/12/12 09:20:05;;;;;;;0.20;0.20;;;4.60;99.90;;;;;;5029146;28;20227;-83
2023/12/12 09:22:31;;;;;;;0.30;0.30;;;4.60;99.90;;;;;;5029560;28;20576;-82
2023/12/12 09:24:57;;;;;;;0.20;0.20;;;4.60;99.90;;;;;;5012021;28;20466;-83
2023/12/12 09:27:22;;;;;;;0.30;0.30;;;4.70;99.90;;;;;;5028770;28;20205;-84
2023/12/12 09:29:48;;;;;;;0.30;0.30;;;4.70;99.90;;;;;;5028878;28;20199;-83
2023/12/12 09:32:13;;;;;;;0.30;0.30;;;4.70;99.90;;;;;;5009856;28;20285;-83
2023/12/12 09:34:39;;;;;;;0.30;0.30;;;4.70;99.90;;;;;;5029263;28;20187;-83
2023/12/12 09:37:04;;;;;;;0.30;0.30;;;4.70;99.90;;;;;;5029229;28;20183;-82
2023/12/12 09:39:30;;;;;;;0.30;0.30;;;4.70;99.90;;;;;;5028415;28;20195;-84
2023/12/12 09:41:59;;;;;;;0.30;0.30;;;4.70;99.90;;;;;;5029604;28;20195;-83
2023/12/12 09:44:30;;;;;;;0.30;0.30;;;4.70;99.90;;;;;;5028535;28;20207;-83
2023/12/12 09:46:57;;;;;;;0.30;0.30;;;4.80;99.90;;;;;;5025592;28;20460;-83
2023/12/12 09:49:24;;;;;;;0.30;0.30;;;4.90;99.90;;;;;;5027936;28;20434;-83
2023/12/12 09:51:52;;;;;;;0.30;0.30;;;4.90;99.90;;;;;;5029103;28;20466;-83
2023/12/12 09:54:18;;;;;;;0.20;0.20;;;4.90;99.90;;;;;;5029319;28;20501;-83
2023/12/12 09:56:46;;;;;;;0.30;0.30;;;4.90;99.90;;;;;;5029105;28;20418;-83
2023/12/12 09:59:11;;;;;;;0.30;0.30;;;4.90;99.90;;;;;;5029929;28;20426;-83
2023/12/12 10:01:41;;;;;;;0.30;0.30;;;4.90;99.90;;;;;;5028503;28;20982;-83
2023/12/12 10:04:08;;;;;;;0.27;0.27;;;4.90;99.90;;;;;;5023335;28;20195;-83
2023/12/12 10:06:49;;;;;;;0.30;0.30;;;4.80;99.90;;;;;;5027963;28;20425;-83
2023/12/12 10:09:15;;;;;;;0.20;0.20;;;4.70;99.90;;;;;;5028192;28;20524;-83
2023/12/12 10:11:40;;;;;;;0.33;0.33;;;4.70;99.90;;;;;;5028259;28;20476;-84
2023/12/12 10:14:06;;;;;;;0.30;0.30;;;4.80;99.90;;;;;;5028901;28;20198;-84
2023/12/12 10:16:32;;;;;;;0.30;0.30;;;4.80;99.90;;;;;;5026593;28;20258;-84
2023/12/12 10:19:01;;;;;;;0.30;0.30;;;4.70;99.90;;;;;;5030749;28;20238;-84
2023/12/12 10:21:28;;;;;;;0.23;0.23;;;4.70;99.90;;;;;;5033244;28;20242;-83
2023/12/12 10:23:54;;;;;;;0.30;0.30;;;4.70;99.90;;;;;;5024640;28;20435;-84
2023/12/12 10:26:29;;;;;;;0.30;0.30;;;4.70;99.90;;;;;;5032486;28;20435;-83
2023/12/12 10:28:55;;;;;;;0.20;0.20;;;4.70;99.90;;;;;;5040448;28;20437;-84
2023/12/12 10:31:22;;;;;;;0.23;0.23;;;4.80;99.90;;;;;;5021634;28;20954;-84
2023/12/12 10:33:48;;;;;;;0.27;0.27;;;4.80;99.90;;;;;;5025418;28;20486;-83
2023/12/12 10:36:14;;;;;;;0.30;0.30;;;4.80;99.90;;;;;;5028646;28;20436;-84
2023/12/12 10:38:40;;;;;;;0.30;0.30;;;4.80;99.90;;;;;;5023412;28;20453;-84
2023/12/12 10:41:12;;;;;;;0.30;0.30;;;4.90;99.90;;;;;;5023344;28;20183;-83
2023/12/12 10:43:42;;;;;;;0.30;0.30;;;5.20;99.90;;;;;;5018874;28;20188;-84
2023/12/12 10:46:18;;;;;;;0.30;0.30;;;5.40;99.90;;;;;;5019107;28;21084;-84
2023/12/12 10:48:46;;;;;;;0.30;0.30;;;5.40;99.90;;;;;;5028309;28;20782;-84
2023/12/12 10:51:13;;;;;;;0.30;0.30;;;5.30;99.90;;;;;;5034656;28;20432;-84
2023/12/12 10:53:41;;;;;;;0.30;0.30;;;5.20;99.90;;;;;;5033295;28;20482;-83
2023/12/12 10:56:07;;;;;;;0.30;0.30;;;5.10;99.90;;;;;;5026093;28;20426;-83
2023/12/12 10:58:35;;;;;;;0.27;0.27;;;5.10;99.90;;;;;;5018650;28;20551;-82
2023/12/12 11:01:02;;;;;;;0.30;0.30;;;5.10;99.90;;;;;;5041557;28;20464;-82
2023/12/12 11:03:29;;;;;;;0.30;0.30;;;5.00;99.90;;;;;;5030597;28;20430;-82
2023/12/12 11:05:55;;;;;;;0.20;0.20;;;5.10;99.90;;;;;;5030040;28;20434;-83
2023/12/12 11:08:22;;;;;;;0.20;0.20;;;5.00;99.90;;;;;;5032447;28;20513;-82
2023/12/12 11:10:51;;;;;;;0.20;0.20;;;5.20;99.90;;;;;;5040457;28;21093;-82
2023/12/12 11:13:19;;;;;;;0.30;0.30;;;5.20;99.90;;;;;;5025896;28;21076;-83
2023/12/12 11:15:45;;;;;;;0.23;0.23;;;5.20;99.90;;;;;;5028533;28;20435;-82
2023/12/12 11:18:11;;;;;;;0.20;0.20;;;5.30;99.90;;;;;;5043818;28;20516;-82
2023/12/12 11:20:37;;;;;;;0.20;0.20;;;5.30;99.90;;;;;;5035064;28;20435;-82
2023/12/12 11:23:05;;;;;;;0.20;0.20;;;5.40;99.90;;;;;;5041300;28;20184;-82
2023/12/12 11:25:31;;;;;;;0.30;0.30;;;5.30;99.90;;;;;;5024535;28;20425;-84
2023/12/12 11:27:58;;;;;;;0.20;0.20;;;5.30;99.90;;;;;;5022010;28;20444;-85
2023/12/12 11:30:51;;;;;;;0.20;0.20;;;5.30;99.90;;;;;;5032986;28;20619;-84
2023/12/12 11:33:16;;;;;;;0.20;0.20;;;5.40;99.90;;;;;;5008470;28;20494;-84
2023/12/12 11:35:42;;;;;;;0.20;0.20;;;5.40;99.90;;;;;;5032797;28;21247;-83
2023/12/12 11:38:29;;;;;;;0.30;0.30;;;5.30;99.90;;;;;;5029744;28;20958;-84
2023/12/12 11:41:14;;;;;;;0.20;0.20;;;5.40;99.90;;;;;;5048034;28;20202;-85
2023/12/12 11:43:41;;;;;;;0.30;0.30;;;5.40;99.90;;;;;;5032528;28;20535;-84
2023/12/12 11:46:18;;;;;;;0.20;0.20;;;5.30;99.90;;;;;;5006825;28;20809;-83
2023/12/12 11:48:43;;;;;;;0.20;0.20;;;5.40;99.90;;;;;;5012190;28;20475;-84
2023/12/12 11:51:34;;;;;;;0.30;0.30;;;5.40;99.90;;;;;;5007953;28;20522;-84
2023/12/12 11:54:06;;;;;;;0.20;0.20;;;5.50;99.90;;;;;;5006111;28;20722;-83
2023/12/12 11:56:32;;;;;;;0.30;0.30;;;5.60;99.90;;;;;;5018987;28;20441;-83
2023/12/12 11:59:00;;;;;;;0.20;0.20;;;5.60;99.90;;;;;;5029952;28;20429;-83
2023/12/12 12:01:26;;;;;;;0.20;0.20;;;5.60;99.90;;;;;;5006334;28;20179;-84
2023/12/12 12:03:52;;;;;;;0.20;0.20;;;5.50;99.90;;;;;;5010340;28;21023;-83
2023/12/12 12:06:18;;;;;;;0.20;0.20;;;5.50;99.90;;;;;;5029901;28;20295;-84
2023/12/12 12:08:44;;;;;;;0.20;0.20;;;5.40;99.90;;;;;;5023552;28;20423;-84
2023/12/12 12:11:11;;;;;;;0.20;0.20;;;5.40;99.90;;;;;;4998581;28;20431;-84
2023/12/12 12:13:42;;;;;;;0.30;0.30;;;5.40;99.90;;;;;;5027442;28;20742;-84
2023/12/12 12:16:08;;;;;;;0.30;0.30;;;5.40;99.90;;;;;;5029578;28;20483;-84
2023/12/12 12:18:35;;;;;;;0.30;0.30;;;5.40;99.90;;;;;;5010170;28;20902;-84
2023/12/12 12:21:03;;;;;;;0.77;0.77;;;5.40;99.90;;;;;;5027141;28;20426;-84
2023/12/12 12:23:30;;;;;;;0.40;0.40;;;5.40;99.90;;;;;;5017813;28;20540;-84
2023/12/12 12:26:01;;;;;;;0.70;0.70;;;5.30;99.90;;;;;;5015519;28;20503;-84
2023/12/12 12:28:34;;;;;;;0.30;0.30;;;5.20;99.90;;;;;;5016748;28;20419;-84
2023/12/12 12:31:00;;;;;;;0.20;0.20;;;5.40;99.90;;;;;;5039258;28;20760;-84
2023/12/12 12:33:32;;;;;;;0.20;0.20;;;5.40;99.90;;;;;;5023077;28;20478;-84
2023/12/12 12:35:58;;;;;;;0.20;0.20;;;5.40;99.90;;;;;;5031410;28;20370;-84
2023/12/12 12:38:28;;;;;;;0.30;0.30;;;5.40;99.90;;;;;;5033872;28;20431;-86
2023/12/12 12:40:54;;;;;;;0.30;0.30;;;5.50;99.90;;;;;;5034110;28;20187;-84
2023/12/12 12:43:22;;;;;;;0.30;0.30;;;5.50;99.90;;;;;;5030441;28;20433;-85
2023/12/12 12:45:48;;;;;;;0.27;0.27;;;5.50;99.90;;;;;;5017552;28;20838;-85
2023/12/12 12:48:16;;;;;;;0.20;0.20;;;5.40;99.90;;;;;;5021233;28;20442;-83
2023/12/12 12:50:43;;;;;;;0.30;0.30;;;5.40;99.90;;;;;;5044678;28;20426;-84
2023/12/12 12:53:09;;;;;;;0.20;0.20;;;5.30;99.90;;;;;;5009396;28;20490;-84